sensor_id;sensor_type;location;lat;lon;timestamp;P1;durP1;ratioP1;P2;durP2;ratioP2
71125;SDS011;58785;55.566;38.058;2024-01-10T01:00:13;5.97;;;1.77;;
71125;SDS011;58785;55.566;38.058;2024-01-10T01:02:39;3.20;;;0.73;;
71125;SDS011;58785;55.566;38.058;2024-01-10T01:05:05;3.78;;;0.73;;
71125;SDS011;58785;55.566;38.058;2024-01-10T01:07:34;2.72;;;0.60;;
71125;SDS011;58785;55.566;38.058;2024-01-10T01:10:00;2.80;;;0.50;;
71125;SDS011;58785;55.566;38.058;2024-01-10T01:12:25;2.95;;;0.40;;
71125;SDS011;58785;55.566;38.058;2024-01-10T01:14:51;8.30;;;0.87;;
71125;SDS011;58785;55.566;38.058;2024-01-10T01:17:17;2.97;;;0.60;;
71125;SDS011;58785;55.566;38.058;2024-01-10T01:19:42;4.37;;;0.93;;
71125;SDS011;58785;55.566;38.058;2024-01-10T01:22:08;3.90;;;0.50;;
71125;SDS011;58785;55.566;38.058;2024-01-10T01:24:34;3.17;;;0.57;;
71125;SDS011;58785;55.566;38.058;2024-01-10T01:26:59;4.55;;;1.10;;
71125;SDS011;58785;55.566;38.058;2024-01-10T01:29:25;3.43;;;0.83;;
71125;SDS011;58785;55.566;38.058;2024-01-10T01:31:51;5.03;;;1.60;;
71125;SDS011;58785;55.566;38.058;2024-01-10T01:34:17;3.63;;;1.00;;
71125;SDS011;58785;55.566;38.058;2024-01-10T01:36:43;3.28;;;0.65;;
71125;SDS011;58785;55.566;38.058;2024-01-10T01:39:08;3.40;;;0.60;;
71125;SDS011;58785;55.566;38.058;2024-01-10T01:41:34;2.53;;;0.40;;
71125;SDS011;58785;55.566;38.058;2024-01-10T01:44:00;7.53;;;0.73;;
71125;SDS011;58785;55.566;38.058;2024-01-10T01:46:25;3.03;;;0.60;;
71125;SDS011;58785;55.566;38.058;2024-01-10T01:48:52;8.50;;;0.70;;
71125;SDS011;58785;55.566;38.058;2024-01-10T01:51:17;3.72;;;0.50;;
71125;SDS011;58785;55.566;38.058;2024-01-10T01:53:47;3.22;;;0.60;;
71125;SDS011;58785;55.566;38.058;2024-01-10T01:56:13;2.67;;;0.43;;
71125;SDS011;58785;55.566;38.058;2024-01-10T01:58:40;2.78;;;0.55;;
71125;SDS011;58785;55.566;38.058;2024-01-10T02:01:07;1.85;;;0.50;;
71125;SDS011;58785;55.566;38.058;2024-01-10T02:03:33;2.13;;;0.30;;
71125;SDS011;58785;55.566;38.058;2024-01-10T02:05:59;2.58;;;0.30;;
71125;SDS011;58785;55.566;38.058;2024-01-10T02:08:28;1.35;;;0.20;;
71125;SDS011;58785;55.566;38.058;2024-01-10T02:10:56;1.95;;;0.30;;
71125;SDS011;58785;55.566;38.058;2024-01-10T02:13:22;2.50;;;0.60;;
71125;SDS011;58785;55.566;38.058;2024-01-10T02:15:47;1.23;;;0.20;;
71125;SDS011;58785;55.566;38.058;2024-01-10T02:18:13;2.03;;;0.30;;
71125;SDS011;58785;55.566;38.058;2024-01-10T02:20:39;2.08;;;0.30;;
71125;SDS011;58785;55.566;38.058;2024-01-10T02:23:10;0.80;;;0.10;;
71125;SDS011;58785;55.566;38.058;2024-01-10T02:25:36;2.05;;;0.47;;
71125;SDS011;58785;55.566;38.058;2024-01-10T02:28:02;1.67;;;0.30;;
71125;SDS011;58785;55.566;38.058;2024-01-10T02:30:27;0.97;;;0.20;;
71125;SDS011;58785;55.566;38.058;2024-01-10T02:32:53;1.20;;;0.10;;
71125;SDS011;58785;55.566;38.058;2024-01-10T02:35:19;0.87;;;0.10;;
71125;SDS011;58785;55.566;38.058;2024-01-10T02:37:44;3.20;;;0.37;;
71125;SDS011;58785;55.566;38.058;2024-01-10T02:40:10;6.22;;;1.50;;
71125;SDS011;58785;55.566;38.058;2024-01-10T02:42:36;2.85;;;0.77;;
71125;SDS011;58785;55.566;38.058;2024-01-10T02:45:01;6.87;;;1.93;;
71125;SDS011;58785;55.566;38.058;2024-01-10T02:47:30;4.75;;;0.68;;
71125;SDS011;58785;55.566;38.058;2024-01-10T02:49:56;3.70;;;0.73;;
71125;SDS011;58785;55.566;38.058;2024-01-10T02:52:21;5.28;;;1.33;;
71125;SDS011;58785;55.566;38.058;2024-01-10T02:54:47;5.60;;;2.60;;
71125;SDS011;58785;55.566;38.058;2024-01-10T02:57:12;4.77;;;1.33;;
71125;SDS011;58785;55.566;38.058;2024-01-10T02:59:39;5.10;;;1.23;;
71125;SDS011;58785;55.566;38.058;2024-01-10T03:02:05;5.88;;;2.10;;
71125;SDS011;58785;55.566;38.058;2024-01-10T03:04:30;6.57;;;1.53;;
71125;SDS011;58785;55.566;38.058;2024-01-10T03:06:56;3.42;;;0.98;;
71125;SDS011;58785;55.566;38.058;2024-01-10T03:09:22;5.57;;;1.57;;
71125;SDS011;58785;55.566;38.058;2024-01-10T03:11:48;3.30;;;1.27;;
71125;SDS011;58785;55.566;38.058;2024-01-10T03:14:14;3.73;;;1.00;;
71125;SDS011;58785;55.566;38.058;2024-01-10T03:16:39;4.22;;;1.63;;
71125;SDS011;58785;55.566;38.058;2024-01-10T03:19:05;4.23;;;1.80;;
71125;SDS011;58785;55.566;38.058;2024-01-10T03:21:31;4.85;;;1.55;;
71125;SDS011;58785;55.566;38.058;2024-01-10T03:23:57;4.80;;;1.63;;
71125;SDS011;58785;55.566;38.058;2024-01-10T03:26:26;5.60;;;1.52;;
71125;SDS011;58785;55.566;38.058;2024-01-10T03:28:52;8.27;;;2.25;;
71125;SDS011;58785;55.566;38.058;2024-01-10T03:31:19;4.53;;;1.00;;
71125;SDS011;58785;55.566;38.058;2024-01-10T03:33:45;3.88;;;1.35;;
71125;SDS011;58785;55.566;38.058;2024-01-10T03:36:11;14.57;;;1.27;;
71125;SDS011;58785;55.566;38.058;2024-01-10T03:38:41;5.63;;;1.30;;
71125;SDS011;58785;55.566;38.058;2024-01-10T03:41:07;3.00;;;0.93;;
71125;SDS011;58785;55.566;38.058;2024-01-10T03:43:32;8.90;;;2.13;;
71125;SDS011;58785;55.566;38.058;2024-01-10T03:45:58;3.85;;;1.05;;
71125;SDS011;58785;55.566;38.058;2024-01-10T03:48:24;2.87;;;1.50;;
71125;SDS011;58785;55.566;38.058;2024-01-10T03:50:51;2.60;;;0.93;;
71125;SDS011;58785;55.566;38.058;2024-01-10T03:53:16;3.20;;;0.93;;
71125;SDS011;58785;55.566;38.058;2024-01-10T03:55:42;3.00;;;0.60;;
71125;SDS011;58785;55.566;38.058;2024-01-10T03:58:08;2.53;;;0.77;;
71125;SDS011;58785;55.566;38.058;2024-01-10T04:00:35;4.70;;;1.33;;
71125;SDS011;58785;55.566;38.058;2024-01-10T04:03:00;4.07;;;1.42;;
71125;SDS011;58785;55.566;38.058;2024-01-10T04:05:26;2.93;;;1.10;;
71125;SDS011;58785;55.566;38.058;2024-01-10T04:07:52;4.85;;;1.15;;
71125;SDS011;58785;55.566;38.058;2024-01-10T04:10:17;3.47;;;0.90;;
71125;SDS011;58785;55.566;38.058;2024-01-10T04:12:44;13.98;;;1.08;;
71125;SDS011;58785;55.566;38.058;2024-01-10T04:15:10;2.60;;;0.67;;
71125;SDS011;58785;55.566;38.058;2024-01-10T04:17:36;2.55;;;1.08;;
71125;SDS011;58785;55.566;38.058;2024-01-10T04:20:02;2.38;;;0.95;;
71125;SDS011;58785;55.566;38.058;2024-01-10T04:22:30;4.07;;;1.13;;
71125;SDS011;58785;55.566;38.058;2024-01-10T04:24:57;1.65;;;0.75;;
71125;SDS011;58785;55.566;38.058;2024-01-10T04:27:23;4.47;;;0.98;;
71125;SDS011;58785;55.566;38.058;2024-01-10T04:29:49;2.90;;;0.80;;
71125;SDS011;58785;55.566;38.058;2024-01-10T04:32:15;2.00;;;0.68;;
71125;SDS011;58785;55.566;38.058;2024-01-10T04:34:40;1.33;;;0.40;;
71125;SDS011;58785;55.566;38.058;2024-01-10T04:37:06;2.33;;;0.75;;
71125;SDS011;58785;55.566;38.058;2024-01-10T04:39:33;1.77;;;0.47;;
71125;SDS011;58785;55.566;38.058;2024-01-10T04:41:59;3.65;;;0.95;;
71125;SDS011;58785;55.566;38.058;2024-01-10T04:44:24;3.30;;;1.13;;
71125;SDS011;58785;55.566;38.058;2024-01-10T04:46:50;4.17;;;1.73;;
71125;SDS011;58785;55.566;38.058;2024-01-10T04:49:16;6.88;;;1.85;;
71125;SDS011;58785;55.566;38.058;2024-01-10T04:51:41;3.67;;;0.90;;
71125;SDS011;58785;55.566;38.058;2024-01-10T04:54:07;4.30;;;0.80;;
71125;SDS011;58785;55.566;38.058;2024-01-10T04:56:34;2.15;;;0.77;;
71125;SDS011;58785;55.566;38.058;2024-01-10T04:59:01;3.00;;;1.27;;
71125;SDS011;58785;55.566;38.058;2024-01-10T05:01:28;3.30;;;0.50;;
71125;SDS011;58785;55.566;38.058;2024-01-10T05:03:54;2.40;;;0.70;;
71125;SDS011;58785;55.566;38.058;2024-01-10T05:06:19;1.23;;;0.30;;
71125;SDS011;58785;55.566;38.058;2024-01-10T05:08:45;4.38;;;0.85;;
71125;SDS011;58785;55.566;38.058;2024-01-10T05:11:11;5.25;;;1.27;;
71125;SDS011;58785;55.566;38.058;2024-01-10T05:13:38;3.15;;;1.00;;
71125;SDS011;58785;55.566;38.058;2024-01-10T05:16:04;1.30;;;0.47;;
71125;SDS011;58785;55.566;38.058;2024-01-10T05:18:30;5.55;;;0.73;;
71125;SDS011;58785;55.566;38.058;2024-01-10T05:20:56;2.22;;;0.90;;
71125;SDS011;58785;55.566;38.058;2024-01-10T05:23:22;2.53;;;0.37;;
71125;SDS011;58785;55.566;38.058;2024-01-10T05:25:48;3.53;;;0.90;;
71125;SDS011;58785;55.566;38.058;2024-01-10T05:28:14;1.50;;;0.52;;
71125;SDS011;58785;55.566;38.058;2024-01-10T05:30:40;3.40;;;1.40;;
71125;SDS011;58785;55.566;38.058;2024-01-10T05:33:07;3.67;;;0.90;;
71125;SDS011;58785;55.566;38.058;2024-01-10T05:35:33;2.25;;;0.93;;
71125;SDS011;58785;55.566;38.058;2024-01-10T05:38:01;4.07;;;1.08;;
71125;SDS011;58785;55.566;38.058;2024-01-10T05:40:30;4.27;;;1.13;;
71125;SDS011;58785;55.566;38.058;2024-01-10T05:42:57;4.13;;;0.88;;
71125;SDS011;58785;55.566;38.058;2024-01-10T05:45:24;6.93;;;1.20;;
71125;SDS011;58785;55.566;38.058;2024-01-10T05:47:51;3.47;;;1.15;;
71125;SDS011;58785;55.566;38.058;2024-01-10T05:50:16;2.57;;;0.80;;
71125;SDS011;58785;55.566;38.058;2024-01-10T05:52:42;3.50;;;1.20;;
71125;SDS011;58785;55.566;38.058;2024-01-10T05:55:08;1.08;;;0.52;;
71125;SDS011;58785;55.566;38.058;2024-01-10T05:57:37;5.53;;;1.50;;
71125;SDS011;58785;55.566;38.058;2024-01-10T06:00:05;3.47;;;0.77;;
71125;SDS011;58785;55.566;38.058;2024-01-10T06:02:41;1.27;;;0.30;;
71125;SDS011;58785;55.566;38.058;2024-01-10T06:05:10;0.70;;;0.10;;
71125;SDS011;58785;55.566;38.058;2024-01-10T06:07:39;2.45;;;0.57;;
71125;SDS011;58785;55.566;38.058;2024-01-10T06:10:08;1.50;;;0.55;;
71125;SDS011;58785;55.566;38.058;2024-01-10T06:12:35;2.37;;;0.57;;
71125;SDS011;58785;55.566;38.058;2024-01-10T06:15:01;2.72;;;0.65;;
71125;SDS011;58785;55.566;38.058;2024-01-10T06:17:30;2.63;;;0.70;;
71125;SDS011;58785;55.566;38.058;2024-01-10T06:19:57;1.70;;;0.20;;
71125;SDS011;58785;55.566;38.058;2024-01-10T06:22:25;1.83;;;0.57;;
71125;SDS011;58785;55.566;38.058;2024-01-10T06:24:51;0.73;;;0.20;;
71125;SDS011;58785;55.566;38.058;2024-01-10T06:27:17;0.90;;;0.20;;
71125;SDS011;58785;55.566;38.058;2024-01-10T06:29:44;1.67;;;0.68;;
71125;SDS011;58785;55.566;38.058;2024-01-10T06:32:13;6.40;;;1.23;;
71125;SDS011;58785;55.566;38.058;2024-01-10T06:34:40;2.03;;;0.20;;
71125;SDS011;58785;55.566;38.058;2024-01-10T06:37:06;6.05;;;1.35;;
71125;SDS011;58785;55.566;38.058;2024-01-10T06:39:34;1.83;;;0.30;;
71125;SDS011;58785;55.566;38.058;2024-01-10T06:42:00;3.03;;;0.75;;
71125;SDS011;58785;55.566;38.058;2024-01-10T06:44:29;1.40;;;0.20;;
71125;SDS011;58785;55.566;38.058;2024-01-10T06:46:55;1.17;;;0.30;;
71125;SDS011;58785;55.566;38.058;2024-01-10T06:49:20;3.37;;;1.00;;
71125;SDS011;58785;55.566;38.058;2024-01-10T06:51:46;0.70;;;0.10;;
71125;SDS011;58785;55.566;38.058;2024-01-10T06:54:12;3.20;;;0.87;;
71125;SDS011;58785;55.566;38.058;2024-01-10T06:56:39;1.95;;;0.73;;
71125;SDS011;58785;55.566;38.058;2024-01-10T06:59:04;3.60;;;0.53;;
71125;SDS011;58785;55.566;38.058;2024-01-10T07:01:30;3.42;;;0.50;;
71125;SDS011;58785;55.566;38.058;2024-01-10T07:03:55;2.07;;;0.67;;
71125;SDS011;58785;55.566;38.058;2024-01-10T07:06:21;1.48;;;0.47;;
71125;SDS011;58785;55.566;38.058;2024-01-10T07:08:48;5.30;;;1.37;;
71125;SDS011;58785;55.566;38.058;2024-01-10T07:11:14;1.23;;;0.30;;
71125;SDS011;58785;55.566;38.058;2024-01-10T07:13:41;0.70;;;0.20;;
71125;SDS011;58785;55.566;38.058;2024-01-10T07:16:07;1.33;;;0.40;;
71125;SDS011;58785;55.566;38.058;2024-01-10T07:18:33;1.67;;;0.53;;
71125;SDS011;58785;55.566;38.058;2024-01-10T07:20:59;1.05;;;0.45;;
71125;SDS011;58785;55.566;38.058;2024-01-10T07:23:25;2.00;;;0.73;;
71125;SDS011;58785;55.566;38.058;2024-01-10T07:25:51;2.17;;;0.40;;
71125;SDS011;58785;55.566;38.058;2024-01-10T07:28:17;1.25;;;0.30;;
71125;SDS011;58785;55.566;38.058;2024-01-10T07:30:43;1.88;;;0.52;;
71125;SDS011;58785;55.566;38.058;2024-01-10T07:33:10;1.92;;;0.88;;
71125;SDS011;58785;55.566;38.058;2024-01-10T07:35:36;2.47;;;0.70;;
71125;SDS011;58785;55.566;38.058;2024-01-10T07:38:03;0.85;;;0.15;;
71125;SDS011;58785;55.566;38.058;2024-01-10T07:40:35;6.50;;;0.80;;
71125;SDS011;58785;55.566;38.058;2024-01-10T07:43:01;2.95;;;1.35;;
71125;SDS011;58785;55.566;38.058;2024-01-10T07:45:27;2.50;;;0.95;;
71125;SDS011;58785;55.566;38.058;2024-01-10T07:47:53;1.60;;;0.57;;
71125;SDS011;58785;55.566;38.058;2024-01-10T07:50:19;3.25;;;0.63;;
71125;SDS011;58785;55.566;38.058;2024-01-10T07:52:45;1.42;;;0.40;;
71125;SDS011;58785;55.566;38.058;2024-01-10T07:55:11;1.77;;;0.40;;
71125;SDS011;58785;55.566;38.058;2024-01-10T07:57:37;2.08;;;0.32;;
71125;SDS011;58785;55.566;38.058;2024-01-10T08:00:05;2.10;;;0.80;;
71125;SDS011;58785;55.566;38.058;2024-01-10T08:02:36;2.35;;;1.13;;
71125;SDS011;58785;55.566;38.058;2024-01-10T08:05:05;1.90;;;0.50;;
71125;SDS011;58785;55.566;38.058;2024-01-10T08:07:35;4.67;;;1.03;;
71125;SDS011;58785;55.566;38.058;2024-01-10T08:10:06;1.50;;;0.98;;
71125;SDS011;58785;55.566;38.058;2024-01-10T08:12:36;1.80;;;0.35;;
71125;SDS011;58785;55.566;38.058;2024-01-10T08:15:04;3.10;;;0.70;;
71125;SDS011;58785;55.566;38.058;2024-01-10T08:17:31;9.23;;;4.15;;
71125;SDS011;58785;55.566;38.058;2024-01-10T08:19:58;3.17;;;1.07;;
71125;SDS011;58785;55.566;38.058;2024-01-10T08:22:25;2.85;;;1.00;;
71125;SDS011;58785;55.566;38.058;2024-01-10T08:24:50;0.60;;;0.10;;
71125;SDS011;58785;55.566;38.058;2024-01-10T08:27:16;1.15;;;0.30;;
71125;SDS011;58785;55.566;38.058;2024-01-10T08:29:42;1.92;;;0.70;;
71125;SDS011;58785;55.566;38.058;2024-01-10T08:32:10;1.07;;;0.20;;
71125;SDS011;58785;55.566;38.058;2024-01-10T08:34:36;5.07;;;1.33;;
71125;SDS011;58785;55.566;38.058;2024-01-10T08:37:02;0.30;;;0.00;;
71125;SDS011;58785;55.566;38.058;2024-01-10T08:39:28;0.70;;;0.15;;
71125;SDS011;58785;55.566;38.058;2024-01-10T08:41:56;7.32;;;1.13;;
71125;SDS011;58785;55.566;38.058;2024-01-10T08:44:22;2.45;;;0.70;;
71125;SDS011;58785;55.566;38.058;2024-01-10T08:46:48;11.70;;;1.13;;
71125;SDS011;58785;55.566;38.058;2024-01-10T08:49:16;2.40;;;0.68;;
71125;SDS011;58785;55.566;38.058;2024-01-10T08:51:42;2.78;;;0.70;;
71125;SDS011;58785;55.566;38.058;2024-01-10T08:54:09;1.88;;;0.63;;
71125;SDS011;58785;55.566;38.058;2024-01-10T08:56:34;2.07;;;0.30;;
71125;SDS011;58785;55.566;38.058;2024-01-10T08:59:00;1.65;;;0.50;;
71125;SDS011;58785;55.566;38.058;2024-01-10T09:01:26;1.97;;;0.60;;
71125;SDS011;58785;55.566;38.058;2024-01-10T09:03:52;0.93;;;0.20;;
71125;SDS011;58785;55.566;38.058;2024-01-10T09:06:17;2.37;;;0.50;;
71125;SDS011;58785;55.566;38.058;2024-01-10T09:08:43;0.60;;;0.10;;
71125;SDS011;58785;55.566;38.058;2024-01-10T09:11:09;1.42;;;0.28;;
71125;SDS011;58785;55.566;38.058;2024-01-10T09:13:34;3.60;;;0.37;;
71125;SDS011;58785;55.566;38.058;2024-01-10T09:16:03;1.85;;;0.70;;
71125;SDS011;58785;55.566;38.058;2024-01-10T09:18:29;4.57;;;0.93;;
71125;SDS011;58785;55.566;38.058;2024-01-10T09:20:54;1.83;;;0.63;;
71125;SDS011;58785;55.566;38.058;2024-01-10T09:23:20;2.05;;;0.40;;
71125;SDS011;58785;55.566;38.058;2024-01-10T09:25:46;6.03;;;0.40;;
71125;SDS011;58785;55.566;38.058;2024-01-10T09:28:11;1.52;;;0.35;;
71125;SDS011;58785;55.566;38.058;2024-01-10T09:30:37;4.20;;;0.43;;
71125;SDS011;58785;55.566;38.058;2024-01-10T09:33:03;1.47;;;0.47;;
71125;SDS011;58785;55.566;38.058;2024-01-10T09:35:28;4.97;;;0.80;;
71125;SDS011;58785;55.566;38.058;2024-01-10T09:37:54;2.77;;;0.70;;
71125;SDS011;58785;55.566;38.058;2024-01-10T09:40:20;4.30;;;0.93;;
71125;SDS011;58785;55.566;38.058;2024-01-10T09:42:52;4.07;;;1.33;;
71125;SDS011;58785;55.566;38.058;2024-01-10T09:45:20;0.65;;;0.20;;
71125;SDS011;58785;55.566;38.058;2024-01-10T09:47:48;5.90;;;0.93;;
71125;SDS011;58785;55.566;38.058;2024-01-10T09:50:17;3.30;;;0.63;;
71125;SDS011;58785;55.566;38.058;2024-01-10T09:52:49;1.98;;;0.57;;
71125;SDS011;58785;55.566;38.058;2024-01-10T09:55:16;1.60;;;0.30;;
71125;SDS011;58785;55.566;38.058;2024-01-10T09:57:46;1.47;;;0.47;;
71125;SDS011;58785;55.566;38.058;2024-01-10T10:00:12;2.83;;;1.20;;
71125;SDS011;58785;55.566;38.058;2024-01-10T10:02:40;13.05;;;0.60;;
71125;SDS011;58785;55.566;38.058;2024-01-10T10:05:13;2.03;;;0.70;;
71125;SDS011;58785;55.566;38.058;2024-01-10T10:07:48;6.68;;;1.13;;
71125;SDS011;58785;55.566;38.058;2024-01-10T10:10:16;5.90;;;1.83;;
71125;SDS011;58785;55.566;38.058;2024-01-10T10:12:45;7.90;;;1.83;;
71125;SDS011;58785;55.566;38.058;2024-01-10T10:15:17;12.68;;;4.90;;
71125;SDS011;58785;55.566;38.058;2024-01-10T10:17:44;12.25;;;3.08;;
71125;SDS011;58785;55.566;38.058;2024-01-10T10:23:06;6.23;;;1.97;;
71125;SDS011;58785;55.566;38.058;2024-01-10T10:25:45;6.60;;;1.75;;
71125;SDS011;58785;55.566;38.058;2024-01-10T10:28:13;3.45;;;0.63;;
71125;SDS011;58785;55.566;38.058;2024-01-10T10:30:38;8.20;;;2.13;;
71125;SDS011;58785;55.566;38.058;2024-01-10T10:33:04;3.05;;;0.70;;
71125;SDS011;58785;55.566;38.058;2024-01-10T10:35:33;12.55;;;1.55;;
71125;SDS011;58785;55.566;38.058;2024-01-10T10:37:59;5.50;;;1.00;;
71125;SDS011;58785;55.566;38.058;2024-01-10T10:40:25;7.10;;;1.55;;
71125;SDS011;58785;55.566;38.058;2024-01-10T10:42:57;3.53;;;1.07;;
71125;SDS011;58785;55.566;38.058;2024-01-10T10:45:23;6.20;;;2.03;;
71125;SDS011;58785;55.566;38.058;2024-01-10T10:47:55;10.95;;;2.40;;
71125;SDS011;58785;55.566;38.058;2024-01-10T10:50:23;5.10;;;1.58;;
71125;SDS011;58785;55.566;38.058;2024-01-10T10:52:49;8.23;;;2.50;;
71125;SDS011;58785;55.566;38.058;2024-01-10T10:55:16;6.97;;;1.67;;
71125;SDS011;58785;55.566;38.058;2024-01-10T10:57:47;4.93;;;1.95;;
71125;SDS011;58785;55.566;38.058;2024-01-10T11:00:20;10.60;;;2.75;;
71125;SDS011;58785;55.566;38.058;2024-01-10T11:02:53;8.63;;;1.95;;
71125;SDS011;58785;55.566;38.058;2024-01-10T11:05:20;8.80;;;2.40;;
71125;SDS011;58785;55.566;38.058;2024-01-10T11:07:47;5.73;;;1.20;;
71125;SDS011;58785;55.566;38.058;2024-01-10T11:10:14;6.60;;;1.33;;
71125;SDS011;58785;55.566;38.058;2024-01-10T11:18:33;5.78;;;1.67;;
71125;SDS011;58785;55.566;38.058;2024-01-10T11:24:03;3.28;;;0.73;;
71125;SDS011;58785;55.566;38.058;2024-01-10T11:26:30;4.50;;;1.33;;
71125;SDS011;58785;55.566;38.058;2024-01-10T11:28:57;2.92;;;0.60;;
71125;SDS011;58785;55.566;38.058;2024-01-10T11:31:29;7.57;;;2.40;;
71125;SDS011;58785;55.566;38.058;2024-01-10T11:33:56;5.43;;;1.08;;
71125;SDS011;58785;55.566;38.058;2024-01-10T11:36:23;9.90;;;2.50;;
71125;SDS011;58785;55.566;38.058;2024-01-10T11:41:27;4.82;;;1.10;;
71125;SDS011;58785;55.566;38.058;2024-01-10T11:46:37;8.55;;;1.67;;
71125;SDS011;58785;55.566;38.058;2024-01-10T11:49:06;5.20;;;1.45;;
71125;SDS011;58785;55.566;38.058;2024-01-10T11:51:37;7.85;;;1.95;;
71125;SDS011;58785;55.566;38.058;2024-01-10T11:54:03;11.82;;;3.15;;
71125;SDS011;58785;55.566;38.058;2024-01-10T11:56:39;7.27;;;1.43;;
71125;SDS011;58785;55.566;38.058;2024-01-10T11:59:06;4.70;;;1.73;;
71125;SDS011;58785;55.566;38.058;2024-01-10T12:01:35;8.55;;;1.83;;
71125;SDS011;58785;55.566;38.058;2024-01-10T12:04:02;10.82;;;2.83;;
71125;SDS011;58785;55.566;38.058;2024-01-10T12:06:29;7.68;;;2.38;;
71125;SDS011;58785;55.566;38.058;2024-01-10T12:08:56;5.57;;;1.67;;
71125;SDS011;58785;55.566;38.058;2024-01-10T12:11:22;10.25;;;3.10;;
71125;SDS011;58785;55.566;38.058;2024-01-10T12:13:48;7.13;;;1.95;;
71125;SDS011;58785;55.566;38.058;2024-01-10T12:16:14;4.78;;;1.15;;
71125;SDS011;58785;55.566;38.058;2024-01-10T12:18:44;6.68;;;1.80;;
71125;SDS011;58785;55.566;38.058;2024-01-10T12:24:27;4.63;;;1.08;;
71125;SDS011;58785;55.566;38.058;2024-01-10T12:26:54;6.70;;;1.15;;
71125;SDS011;58785;55.566;38.058;2024-01-10T12:29:20;7.57;;;1.67;;
71125;SDS011;58785;55.566;38.058;2024-01-10T12:31:47;5.03;;;1.70;;
71125;SDS011;58785;55.566;38.058;2024-01-10T12:34:13;8.38;;;1.70;;
71125;SDS011;58785;55.566;38.058;2024-01-10T12:36:40;5.93;;;2.47;;
71125;SDS011;58785;55.566;38.058;2024-01-10T12:39:07;6.95;;;2.03;;
71125;SDS011;58785;55.566;38.058;2024-01-10T12:41:33;5.07;;;1.23;;
71125;SDS011;58785;55.566;38.058;2024-01-10T12:43:59;9.05;;;1.73;;
71125;SDS011;58785;55.566;38.058;2024-01-10T12:46:28;5.90;;;1.80;;
71125;SDS011;58785;55.566;38.058;2024-01-10T12:48:57;7.90;;;1.75;;
71125;SDS011;58785;55.566;38.058;2024-01-10T12:51:33;4.87;;;1.67;;
71125;SDS011;58785;55.566;38.058;2024-01-10T12:54:02;8.55;;;2.88;;
71125;SDS011;58785;55.566;38.058;2024-01-10T12:56:29;6.43;;;1.60;;
71125;SDS011;58785;55.566;38.058;2024-01-10T12:58:55;6.50;;;2.15;;
71125;SDS011;58785;55.566;38.058;2024-01-10T13:01:23;6.65;;;2.35;;
71125;SDS011;58785;55.566;38.058;2024-01-10T13:03:49;14.03;;;2.57;;
71125;SDS011;58785;55.566;38.058;2024-01-10T13:06:15;6.05;;;1.63;;
71125;SDS011;58785;55.566;38.058;2024-01-10T13:08:42;7.63;;;2.55;;
71125;SDS011;58785;55.566;38.058;2024-01-10T13:11:08;6.43;;;1.67;;
71125;SDS011;58785;55.566;38.058;2024-01-10T13:13:35;4.07;;;1.95;;
71125;SDS011;58785;55.566;38.058;2024-01-10T13:16:01;10.00;;;2.70;;
71125;SDS011;58785;55.566;38.058;2024-01-10T13:18:27;5.70;;;1.88;;
71125;SDS011;58785;55.566;38.058;2024-01-10T13:20:54;7.28;;;2.03;;
71125;SDS011;58785;55.566;38.058;2024-01-10T13:23:20;5.22;;;1.55;;
71125;SDS011;58785;55.566;38.058;2024-01-10T13:25:50;8.40;;;2.50;;
71125;SDS011;58785;55.566;38.058;2024-01-10T13:28:18;6.50;;;2.23;;
71125;SDS011;58785;55.566;38.058;2024-01-10T13:30:44;8.30;;;2.13;;
71125;SDS011;58785;55.566;38.058;2024-01-10T13:33:10;8.40;;;2.67;;
71125;SDS011;58785;55.566;38.058;2024-01-10T13:35:36;9.40;;;3.10;;
71125;SDS011;58785;55.566;38.058;2024-01-10T13:38:02;15.93;;;3.72;;
71125;SDS011;58785;55.566;38.058;2024-01-10T13:40:28;9.95;;;3.30;;
71125;SDS011;58785;55.566;38.058;2024-01-10T13:42:53;7.20;;;3.00;;
71125;SDS011;58785;55.566;38.058;2024-01-10T13:45:19;11.38;;;3.30;;
71125;SDS011;58785;55.566;38.058;2024-01-10T13:47:45;8.45;;;2.65;;
71125;SDS011;58785;55.566;38.058;2024-01-10T13:50:11;7.43;;;2.73;;
71125;SDS011;58785;55.566;38.058;2024-01-10T13:52:37;11.00;;;3.78;;
71125;SDS011;58785;55.566;38.058;2024-01-10T13:55:03;8.00;;;3.33;;
71125;SDS011;58785;55.566;38.058;2024-01-10T13:57:30;18.42;;;2.92;;
71125;SDS011;58785;55.566;38.058;2024-01-10T14:00:00;10.10;;;3.35;;
71125;SDS011;58785;55.566;38.058;2024-01-10T14:02:26;16.25;;;4.38;;
71125;SDS011;58785;55.566;38.058;2024-01-10T14:04:52;9.97;;;3.20;;
71125;SDS011;58785;55.566;38.058;2024-01-10T14:07:31;8.75;;;2.67;;
71125;SDS011;58785;55.566;38.058;2024-01-10T14:09:58;9.93;;;4.57;;
71125;SDS011;58785;55.566;38.058;2024-01-10T14:12:23;8.87;;;3.70;;
71125;SDS011;58785;55.566;38.058;2024-01-10T14:14:49;10.70;;;3.42;;
71125;SDS011;58785;55.566;38.058;2024-01-10T14:17:15;7.30;;;2.00;;
71125;SDS011;58785;55.566;38.058;2024-01-10T14:19:41;9.00;;;3.60;;
71125;SDS011;58785;55.566;38.058;2024-01-10T14:22:08;16.35;;;4.70;;
71125;SDS011;58785;55.566;38.058;2024-01-10T14:24:34;6.63;;;2.23;;
71125;SDS011;58785;55.566;38.058;2024-01-10T14:26:59;12.37;;;3.43;;
71125;SDS011;58785;55.566;38.058;2024-01-10T14:29:25;21.48;;;4.45;;
71125;SDS011;58785;55.566;38.058;2024-01-10T14:31:50;12.37;;;4.33;;
71125;SDS011;58785;55.566;38.058;2024-01-10T14:34:16;7.87;;;4.30;;
71125;SDS011;58785;55.566;38.058;2024-01-10T14:36:42;26.58;;;2.83;;
71125;SDS011;58785;55.566;38.058;2024-01-10T14:39:07;7.23;;;3.53;;
71125;SDS011;58785;55.566;38.058;2024-01-10T14:41:33;10.18;;;3.47;;
71125;SDS011;58785;55.566;38.058;2024-01-10T14:44:02;24.03;;;3.57;;
71125;SDS011;58785;55.566;38.058;2024-01-10T14:46:29;6.90;;;3.05;;
71125;SDS011;58785;55.566;38.058;2024-01-10T14:48:54;4.95;;;1.42;;
71125;SDS011;58785;55.566;38.058;2024-01-10T14:51:20;6.30;;;2.03;;
71125;SDS011;58785;55.566;38.058;2024-01-10T14:53:45;11.70;;;2.93;;
71125;SDS011;58785;55.566;38.058;2024-01-10T14:56:11;6.13;;;1.50;;
71125;SDS011;58785;55.566;38.058;2024-01-10T14:58:41;7.30;;;2.50;;
71125;SDS011;58785;55.566;38.058;2024-01-10T15:01:07;8.65;;;2.38;;
71125;SDS011;58785;55.566;38.058;2024-01-10T15:03:34;12.27;;;2.90;;
71125;SDS011;58785;55.566;38.058;2024-01-10T15:05:59;8.93;;;2.70;;
71125;SDS011;58785;55.566;38.058;2024-01-10T15:08:25;6.00;;;2.00;;
71125;SDS011;58785;55.566;38.058;2024-01-10T15:10:51;13.40;;;3.40;;
71125;SDS011;58785;55.566;38.058;2024-01-10T15:13:16;8.55;;;3.35;;
71125;SDS011;58785;55.566;38.058;2024-01-10T15:15:43;6.80;;;2.72;;
71125;SDS011;58785;55.566;38.058;2024-01-10T15:18:09;5.73;;;2.17;;
71125;SDS011;58785;55.566;38.058;2024-01-10T15:20:34;10.40;;;3.10;;
71125;SDS011;58785;55.566;38.058;2024-01-10T15:23:00;10.13;;;3.20;;
71125;SDS011;58785;55.566;38.058;2024-01-10T15:25:26;9.20;;;3.25;;
71125;SDS011;58785;55.566;38.058;2024-01-10T15:27:51;7.20;;;2.83;;
71125;SDS011;58785;55.566;38.058;2024-01-10T15:30:17;7.28;;;2.95;;
71125;SDS011;58785;55.566;38.058;2024-01-10T15:32:48;8.97;;;3.07;;
71125;SDS011;58785;55.566;38.058;2024-01-10T15:35:14;7.47;;;2.42;;
71125;SDS011;58785;55.566;38.058;2024-01-10T15:37:40;13.90;;;2.45;;
71125;SDS011;58785;55.566;38.058;2024-01-10T15:40:07;4.32;;;1.52;;
71125;SDS011;58785;55.566;38.058;2024-01-10T15:42:33;7.65;;;2.55;;
71125;SDS011;58785;55.566;38.058;2024-01-10T15:44:59;8.63;;;2.30;;
71125;SDS011;58785;55.566;38.058;2024-01-10T15:47:26;8.23;;;1.73;;
71125;SDS011;58785;55.566;38.058;2024-01-10T15:49:52;9.80;;;2.63;;